Time;durP1;ratioP1;P1;durP2;ratioP2;P2;SDS_P1;SDS_P2;PMS_P1;PMS_P2;Temp;Humidity;BMP_temperature;BMP_pressure;BME280_temperature;BME280_humidity;BME280_pressure;Samples;Min_cycle;Max_cycle;Signal;HPM_P1;HPM_P2
2022/04/12 00:00:10;;;;;;;6.15;3.92;;;0.30;99.90;;;;;;5054679;28;20084;-84
2022/04/12 00:02:37;;;;;;;3.75;3.40;;;0.20;99.90;;;;;;5054576;28;20084;-84
2022/04/12 00:05:05;;;;;;;5.55;3.25;;;0.20;99.90;;;;;;5053029;28;20049;-84
2022/04/12 00:07:52;;;;;;;6.40;3.22;;;0.00;99.90;;;;;;5054730;28;20048;-85
2022/04/12 00:10:19;;;;;;;3.67;3.38;;;0.00;99.90;;;;;;5052504;28;20450;-85
2022/04/12 00:12:46;;;;;;;3.53;3.22;;;0.00;99.90;;;;;;5054540;28;20078;-85
2022/04/12 00:15:13;;;;;;;4.10;3.70;;;0.00;99.90;;;;;;5054101;28;20045;-85
2022/04/12 00:20:26;;;;;;;4.47;3.30;;;0.10;99.90;;;;;;5053955;28;20072;-85
2022/04/12 00:22:54;;;;;;;3.85;3.47;;;0.00;99.90;;;;;;5053010;28;20049;-85
2022/04/12 00:25:22;;;;;;;5.28;3.80;;;0.00;99.90;;;;;;5052883;28;20053;-85
2022/04/12 00:27:50;;;;;;;3.78;3.38;;;0.10;99.90;;;;;;5053999;28;20053;-85
2022/04/12 00:30:21;;;;;;;4.97;3.50;;;0.20;99.90;;;;;;5053988;28;20135;-85
2022/04/12 00:32:52;;;;;;;3.38;3.05;;;0.20;99.90;;;;;;5086591;28;20083;-84
2022/04/12 00:35:21;;;;;;;4.55;3.67;;;0.20;99.90;;;;;;5052652;28;20053;-85
2022/04/12 00:37:52;;;;;;;3.53;3.25;;;0.20;99.90;;;;;;5052993;28;20055;-85
2022/04/12 00:40:20;;;;;;;17.02;4.22;;;0.20;99.90;;;;;;5088794;28;20048;-84
2022/04/12 00:42:48;;;;;;;3.50;3.20;;;0.20;99.90;;;;;;5052795;28;20045;-84
2022/04/12 00:45:15;;;;;;;3.40;3.08;;;0.20;99.90;;;;;;5052564;28;20493;-84
2022/04/12 00:47:42;;;;;;;7.38;3.20;;;0.00;99.90;;;;;;5053641;28;20120;-84
2022/04/12 00:50:11;;;;;;;3.55;3.25;;;-0.20;99.90;;;;;;5053357;28;20079;-84
2022/04/12 00:52:41;;;;;;;6.75;3.40;;;-0.20;99.90;;;;;;5052696;28;20083;-84
2022/04/12 00:55:08;;;;;;;6.35;3.35;;;-0.30;99.90;;;;;;5052294;28;20091;-84
2022/04/12 00:57:36;;;;;;;4.10;3.47;;;-0.30;99.90;;;;;;5053934;28;20045;-84
2022/04/12 01:00:05;;;;;;;5.88;3.38;;;-0.40;99.90;;;;;;5052519;28;20089;-85
2022/04/12 01:02:33;;;;;;;5.45;3.65;;;-0.40;99.90;;;;;;5086028;28;20155;-84
2022/04/12 01:05:00;;;;;;;3.70;3.25;;;-0.40;99.90;;;;;;5052139;28;20095;-84
2022/04/12 01:07:28;;;;;;;5.40;3.50;;;-0.30;99.90;;;;;;5052931;28;20049;-85
2022/04/12 01:09:55;;;;;;;5.70;3.25;;;-0.20;99.90;;;;;;5085482;28;20132;-84
2022/04/12 01:12:22;;;;;;;5.80;3.50;;;-0.20;99.90;;;;;;5052996;28;20067;-84
2022/04/12 01:14:49;;;;;;;3.90;3.40;;;-0.30;99.90;;;;;;5052255;28;20126;-84
2022/04/12 01:17:15;;;;;;;3.95;3.45;;;-0.30;99.90;;;;;;5051954;28;20045;-85
2022/04/12 01:19:42;;;;;;;3.70;3.40;;;-0.40;99.90;;;;;;5051895;28;20470;-84
2022/04/12 01:22:15;;;;;;;3.72;3.35;;;-0.40;99.90;;;;;;5052096;28;20048;-85
2022/04/12 01:24:42;;;;;;;6.38;3.60;;;-0.40;99.90;;;;;;5051993;28;20084;-85
2022/04/12 01:27:09;;;;;;;5.75;3.47;;;-0.40;99.90;;;;;;5052157;28;20168;-85
2022/04/12 01:29:36;;;;;;;5.63;3.42;;;-0.40;99.90;;;;;;5052171;28;20103;-84
2022/04/12 01:32:07;;;;;;;3.08;2.88;;;-0.40;99.90;;;;;;5085317;28;20409;-85
2022/04/12 01:34:35;;;;;;;4.03;3.47;;;-0.30;99.90;;;;;;5051119;28;20061;-83
2022/04/12 01:37:03;;;;;;;4.05;3.55;;;-0.40;99.90;;;;;;5051597;28;20045;-84
2022/04/12 01:39:31;;;;;;;4.20;3.70;;;-0.40;99.90;;;;;;5084848;28;20509;-85
2022/04/12 01:41:57;;;;;;;4.32;3.47;;;-0.40;99.90;;;;;;5052823;28;20450;-85
2022/04/12 01:44:25;;;;;;;3.92;3.60;;;-0.50;99.90;;;;;;5051296;28;20107;-85
2022/04/12 01:46:51;;;;;;;4.75;3.53;;;-0.60;99.90;;;;;;5084796;28;20049;-85
2022/04/12 01:49:19;;;;;;;4.28;3.95;;;-0.60;99.90;;;;;;5084633;28;20051;-84
2022/04/12 01:51:46;;;;;;;3.83;3.53;;;-0.70;99.90;;;;;;5085087;28;20080;-85
2022/04/12 01:54:12;;;;;;;7.65;3.88;;;-0.80;99.90;;;;;;5052987;28;20049;-85
2022/04/12 01:56:39;;;;;;;4.65;3.83;;;-0.80;99.90;;;;;;5089730;28;20088;-84
2022/04/12 01:59:06;;;;;;;5.15;4.32;;;-0.80;99.90;;;;;;5084598;28;20044;-85
2022/04/12 02:01:32;;;;;;;6.22;4.00;;;-0.80;99.90;;;;;;5052629;28;20413;-85
2022/04/12 02:03:59;;;;;;;4.88;3.60;;;-0.70;99.90;;;;;;5051288;28;20056;-85
2022/04/12 02:06:26;;;;;;;6.35;3.70;;;-0.70;99.90;;;;;;5052176;28;20057;-85
2022/04/12 02:08:53;;;;;;;3.60;3.30;;;-0.70;99.90;;;;;;5084933;28;20136;-85
2022/04/12 02:11:20;;;;;;;5.35;4.00;;;-0.80;99.90;;;;;;5052078;28;20135;-85
2022/04/12 02:13:46;;;;;;;4.35;3.90;;;-0.80;99.90;;;;;;5052528;28;20068;-85
2022/04/12 02:16:15;;;;;;;6.10;4.28;;;-0.80;99.90;;;;;;5051520;28;20052;-85
2022/04/12 02:18:42;;;;;;;4.85;4.05;;;-0.80;99.90;;;;;;5052559;28;20049;-84
2022/04/12 02:21:08;;;;;;;5.53;4.43;;;-0.80;99.90;;;;;;5052167;28;20151;-85
2022/04/12 02:23:36;;;;;;;5.47;3.90;;;-0.80;99.90;;;;;;5051613;28;20429;-84
2022/04/12 02:26:02;;;;;;;5.95;3.95;;;-0.80;99.90;;;;;;5052305;28;20084;-85
2022/04/12 02:28:29;;;;;;;4.60;4.25;;;-0.80;99.90;;;;;;5052473;28;20567;-85
2022/04/12 02:30:56;;;;;;;4.72;4.32;;;-0.80;99.90;;;;;;5052432;28;20135;-85
2022/04/12 02:33:23;;;;;;;4.05;3.72;;;-0.80;99.90;;;;;;5087093;28;20136;-85
2022/04/12 02:35:50;;;;;;;6.70;4.10;;;-0.90;99.90;;;;;;5056633;28;20135;-85
2022/04/12 02:38:16;;;;;;;5.90;4.15;;;-0.90;99.90;;;;;;5055107;28;20132;-85
2022/04/12 02:40:43;;;;;;;4.30;3.97;;;-0.90;99.90;;;;;;5056588;28;20151;-85
2022/04/12 02:43:10;;;;;;;7.40;4.10;;;-0.90;99.90;;;;;;5056142;28;20132;-85
2022/04/12 02:45:37;;;;;;;14.50;4.47;;;-0.80;99.90;;;;;;5088522;28;20132;-85
2022/04/12 02:48:04;;;;;;;7.22;4.45;;;-0.90;99.90;;;;;;5055906;28;20041;-85
2022/04/12 02:50:31;;;;;;;7.72;3.72;;;-0.90;99.90;;;;;;5088461;28;20508;-85
2022/04/12 02:52:58;;;;;;;4.90;3.58;;;-0.90;99.90;;;;;;5088293;28;20521;-85
2022/04/12 02:55:25;;;;;;;7.95;4.28;;;-0.90;99.90;;;;;;5054766;28;20101;-85
2022/04/12 02:57:52;;;;;;;6.28;4.20;;;-0.80;99.90;;;;;;5054716;28;20057;-86
2022/04/12 03:00:18;;;;;;;4.03;3.63;;;-0.80;99.90;;;;;;5087696;28;20152;-86
2022/04/12 03:02:45;;;;;;;7.07;4.15;;;-0.90;99.90;;;;;;5056122;28;20478;-86
2022/04/12 03:05:12;;;;;;;3.95;3.60;;;-1.10;99.90;;;;;;5055823;28;20061;-86
2022/04/12 03:07:39;;;;;;;4.05;3.70;;;-1.10;99.90;;;;;;5087700;28;20061;-85
2022/04/12 03:10:06;;;;;;;7.18;4.25;;;-1.20;99.90;;;;;;5055000;28;20132;-85
2022/04/12 03:12:33;;;;;;;5.88;4.00;;;-1.30;99.90;;;;;;5056485;28;20433;-86
2022/04/12 03:15:01;;;;;;;8.05;4.55;;;-1.20;99.90;;;;;;5055840;28;20127;-85
2022/04/12 03:17:29;;;;;;;10.40;5.68;;;-1.20;99.90;;;;;;5055115;28;20104;-85
2022/04/12 03:19:56;;;;;;;8.55;5.28;;;-1.20;99.90;;;;;;5054498;28;20063;-85
2022/04/12 03:22:23;;;;;;;5.88;5.25;;;-1.20;99.90;;;;;;5055456;28;20056;-86
2022/04/12 03:24:50;;;;;;;5.63;5.03;;;-1.20;99.90;;;;;;5054365;28;20434;-86
2022/04/12 03:27:17;;;;;;;9.77;4.68;;;-1.20;99.90;;;;;;5054516;28;20052;-86
2022/04/12 03:29:44;;;;;;;7.85;4.47;;;-1.30;99.90;;;;;;5054533;28;20494;-85
2022/04/12 03:32:11;;;;;;;5.10;3.80;;;-1.20;99.90;;;;;;5055483;28;20075;-85
2022/04/12 03:34:40;;;;;;;6.50;4.50;;;-1.10;99.90;;;;;;5055538;28;20048;-86
2022/04/12 03:37:07;;;;;;;7.70;4.60;;;-1.10;99.90;;;;;;5054193;28;20084;-86
2022/04/12 03:39:34;;;;;;;4.35;4.05;;;-1.10;99.90;;;;;;5054415;28;20468;-85
2022/04/12 03:42:01;;;;;;;5.45;4.40;;;-1.20;99.90;;;;;;5055187;28;20458;-85
2022/04/12 03:44:27;;;;;;;5.63;4.30;;;-1.20;99.90;;;;;;5053832;28;20472;-86
2022/04/12 03:46:54;;;;;;;6.85;4.43;;;-1.30;99.90;;;;;;5054329;28;20105;-85
2022/04/12 03:49:21;;;;;;;6.88;4.47;;;-1.40;99.90;;;;;;5087296;28;20091;-86
2022/04/12 03:51:47;;;;;;;6.03;4.63;;;-1.50;99.90;;;;;;5054153;28;20080;-86
2022/04/12 03:54:14;;;;;;;7.65;5.00;;;-1.50;99.90;;;;;;5053819;28;20131;-85
2022/04/12 03:56:43;;;;;;;9.55;5.47;;;-1.50;99.90;;;;;;5087491;28;20227;-86
2022/04/12 03:59:10;;;;;;;12.13;5.85;;;-1.50;99.90;;;;;;5054876;28;20135;-86
2022/04/12 04:01:37;;;;;;;7.82;6.13;;;-1.50;99.90;;;;;;5055169;28;20041;-86
2022/04/12 04:04:04;;;;;;;9.40;6.35;;;-1.60;99.90;;;;;;5054968;28;20049;-86
2022/04/12 04:06:31;;;;;;;7.75;5.88;;;-1.60;99.90;;;;;;5086941;28;20144;-86
2022/04/12 04:08:57;;;;;;;8.43;6.03;;;-1.70;99.90;;;;;;5086810;28;20084;-86
2022/04/12 04:11:24;;;;;;;7.95;6.22;;;-1.60;99.90;;;;;;5053452;28;20140;-86
2022/04/12 04:13:51;;;;;;;8.63;5.68;;;-1.60;99.90;;;;;;5054116;28;20398;-86
2022/04/12 04:16:18;;;;;;;7.95;5.20;;;-1.60;99.90;;;;;;5086919;28;20501;-86
2022/04/12 04:18:45;;;;;;;7.25;6.57;;;-1.50;99.90;;;;;;5053537;28;20057;-87
2022/04/12 04:21:12;;;;;;;8.35;6.55;;;-1.40;99.90;;;;;;5086797;28;20128;-87
2022/04/12 04:23:39;;;;;;;7.25;5.63;;;-1.40;99.90;;;;;;5053967;28;20049;-86
2022/04/12 04:26:06;;;;;;;5.85;4.95;;;-1.50;99.90;;;;;;5054955;28;20053;-87
2022/04/12 04:28:34;;;;;;;4.70;4.30;;;-1.60;99.90;;;;;;5087012;28;20041;-87
2022/04/12 04:31:01;;;;;;;6.07;4.93;;;-1.70;99.90;;;;;;5054578;28;20144;-87
2022/04/12 04:33:27;;;;;;;7.28;5.25;;;-1.70;99.90;;;;;;5054469;28;20140;-87
2022/04/12 04:35:54;;;;;;;6.53;5.93;;;-1.70;99.90;;;;;;5054266;28;20445;-87
2022/04/12 04:38:21;;;;;;;7.13;5.93;;;-1.70;99.90;;;;;;5053369;28;20387;-87
2022/04/12 04:40:49;;;;;;;6.78;4.88;;;-1.70;99.90;;;;;;5086935;28;20107;-87
2022/04/12 04:43:16;;;;;;;6.80;5.88;;;-1.70;99.90;;;;;;5053272;28;20057;-87
2022/04/12 04:45:46;;;;;;;7.53;4.97;;;-1.70;99.90;;;;;;5053238;28;20041;-86
2022/04/12 04:48:13;;;;;;;6.45;5.85;;;-1.60;99.90;;;;;;5054408;28;20144;-87
2022/04/12 04:50:40;;;;;;;8.23;6.22;;;-1.60;99.90;;;;;;5085132;28;20296;-87
2022/04/12 04:53:10;;;;;;;6.70;6.10;;;-1.50;99.90;;;;;;5086856;28;20104;-87
2022/04/12 04:55:40;;;;;;;12.80;6.35;;;-1.40;99.90;;;;;;5053583;28;20115;-87
2022/04/12 04:58:06;;;;;;;10.00;6.63;;;-1.40;99.90;;;;;;5053736;28;20581;-87
2022/04/12 05:00:34;;;;;;;10.07;7.40;;;-1.40;99.90;;;;;;5086998;28;20063;-87
2022/04/12 05:03:04;;;;;;;9.65;6.95;;;-1.30;99.90;;;;;;5052026;28;20430;-87
2022/04/12 05:05:31;;;;;;;11.15;6.88;;;-1.30;99.90;;;;;;5084746;28;20053;-87
2022/04/12 05:07:58;;;;;;;13.30;7.53;;;-1.20;99.90;;;;;;5051816;28;20076;-86
2022/04/12 05:10:29;;;;;;;10.15;8.50;;;-1.10;99.90;;;;;;5051332;28;20456;-87
2022/04/12 05:12:56;;;;;;;12.10;8.05;;;-1.10;99.90;;;;;;5051378;28;20044;-86
2022/04/12 05:15:24;;;;;;;14.23;8.90;;;-1.00;99.90;;;;;;5052526;28;20049;-86
2022/04/12 05:17:52;;;;;;;12.15;9.45;;;-0.90;99.90;;;;;;5052694;28;20048;-87
2022/04/12 05:20:21;;;;;;;20.55;13.55;;;-0.70;99.90;;;;;;5052282;28;20984;-87
2022/04/12 05:22:48;;;;;;;24.17;14.52;;;-0.50;99.90;;;;;;5052602;28;20486;-87
2022/04/12 05:25:15;;;;;;;23.02;14.18;;;-0.40;99.90;;;;;;5053029;28;20079;-87
2022/04/12 05:27:43;;;;;;;16.90;12.45;;;-0.20;99.90;;;;;;5052583;28;20524;-86
2022/04/12 05:30:13;;;;;;;17.80;12.02;;;0.20;99.90;;;;;;5051754;28;20094;-86
2022/04/12 05:32:40;;;;;;;12.75;9.52;;;0.80;99.90;;;;;;5052538;28;20131;-86
2022/04/12 05:35:08;;;;;;;11.10;8.45;;;1.10;99.90;;;;;;5052826;28;20107;-86
2022/04/12 05:37:42;;;;;;;9.23;6.13;;;1.80;99.90;;;;;;5085310;28;20124;-86
2022/04/12 05:40:11;;;;;;;10.55;5.30;;;2.20;99.90;;;;;;5053717;28;20072;-86
2022/04/12 05:42:39;;;;;;;5.18;4.70;;;2.50;99.90;;;;;;5055065;28;20072;-85
2022/04/12 05:45:10;;;;;;;4.15;3.78;;;3.20;99.90;;;;;;5052819;28;20135;-86
2022/04/12 05:47:55;;;;;;;2.95;2.70;;;3.50;99.90;;;;;;5051944;28;20085;-85
2022/04/12 05:50:25;;;;;;;7.43;4.53;;;3.90;99.90;;;;;;5052560;28;20135;-85
2022/04/12 05:52:52;;;;;;;6.22;2.70;;;3.90;99.90;;;;;;5052929;28;20470;-85
2022/04/12 05:55:22;;;;;;;2.63;2.10;;;4.10;99.90;;;;;;5052723;28;20140;-85
2022/04/12 05:57:50;;;;;;;3.33;1.98;;;4.40;99.90;;;;;;5051687;28;20140;-85
2022/04/12 06:00:18;;;;;;;3.83;1.88;;;4.80;99.90;;;;;;5051567;28;20454;-85
2022/04/12 06:02:46;;;;;;;2.80;2.60;;;5.30;99.90;;;;;;5051972;28;20536;-85
2022/04/12 06:05:14;;;;;;;4.47;2.97;;;5.60;99.90;;;;;;5051324;28;20372;-85
2022/04/12 06:07:42;;;;;;;10.70;5.63;;;6.50;99.90;;;;;;5051898;28;20145;-84
2022/04/12 06:10:13;;;;;;;6.65;3.28;;;7.20;99.90;;;;;;5051079;28;20074;-85
2022/04/12 06:12:40;;;;;;;6.45;2.30;;;8.00;99.90;;;;;;5050904;28;20137;-85
2022/04/12 06:15:08;;;;;;;9.02;2.05;;;8.80;99.90;;;;;;5050700;28;20044;-85
2022/04/12 06:17:36;;;;;;;4.55;3.05;;;9.20;99.90;;;;;;5052583;28;20077;-86
2022/04/12 06:20:04;;;;;;;6.85;3.25;;;10.20;99.90;;;;;;5052565;28;20186;-85
2022/04/12 06:22:31;;;;;;;2.67;2.20;;;10.20;99.90;;;;;;5052510;28;20072;-85
2022/04/12 06:24:59;;;;;;;2.28;1.90;;;10.10;99.90;;;;;;5051018;28;20084;-84
2022/04/12 06:27:30;;;;;;;9.30;4.72;;;9.60;99.90;;;;;;5051407;28;20045;-85
2022/04/12 06:29:57;;;;;;;5.18;3.10;;;9.40;99.90;;;;;;5051434;28;20080;-85
2022/04/12 06:32:26;;;;;;;7.45;3.15;;;8.60;99.90;;;;;;5052107;28;20152;-85
2022/04/12 06:34:52;;;;;;;11.98;5.03;;;8.70;99.90;;;;;;5051242;28;20076;-85
2022/04/12 06:37:23;;;;;;;14.07;5.28;;;9.20;99.90;;;;;;5052369;28;20049;-85
2022/04/12 06:39:50;;;;;;;16.70;5.75;;;9.90;99.90;;;;;;5052455;28;20053;-84
2022/04/12 06:42:16;;;;;;;12.35;6.63;;;10.50;99.90;;;;;;5050948;28;20493;-85
2022/04/12 06:44:43;;;;;;;33.03;4.28;;;10.70;97.60;;;;;;5050848;28;20116;-85
2022/04/12 06:47:10;;;;;;;13.55;3.40;;;11.90;94.60;;;;;;5049421;28;20584;-85
2022/04/12 06:49:37;;;;;;;28.02;5.32;;;12.30;92.60;;;;;;5050422;28;20099;-85
2022/04/12 06:52:04;;;;;;;17.08;3.60;;;12.30;91.90;;;;;;5050163;28;20048;-85
2022/04/12 06:54:30;;;;;;;20.67;3.92;;;11.90;92.20;;;;;;5049226;28;20099;-85
2022/04/12 06:56:57;;;;;;;17.67;5.80;;;12.30;91.20;;;;;;5050049;28;20110;-85
2022/04/12 06:59:25;;;;;;;20.08;4.35;;;11.70;91.90;;;;;;5050529;28;20053;-85
2022/04/12 07:01:52;;;;;;;25.30;5.25;;;10.80;94.00;;;;;;5051270;28;20369;-84
2022/04/12 07:04:19;;;;;;;14.93;3.67;;;11.10;94.50;;;;;;5051213;28;20041;-85
2022/04/12 07:06:46;;;;;;;12.35;3.28;;;10.90;93.50;;;;;;5051076;28;20069;-85
2022/04/12 07:09:18;;;;;;;6.10;3.70;;;10.80;94.00;;;;;;5073730;28;20084;-85
2022/04/12 07:11:45;;;;;;;12.03;3.40;;;11.40;94.20;;;;;;5050962;28;20085;-85
2022/04/12 07:14:12;;;;;;;14.00;2.95;;;12.30;92.80;;;;;;5050875;28;20056;-84
2022/04/12 07:16:39;;;;;;;10.15;3.47;;;12.20;91.70;;;;;;5051141;28;20045;-85
2022/04/12 07:19:06;;;;;;;7.93;2.80;;;13.10;91.30;;;;;;5052649;28;20088;-85
2022/04/12 07:21:33;;;;;;;14.60;2.75;;;12.90;89.90;;;;;;5055932;28;20124;-85
2022/04/12 07:24:00;;;;;;;19.05;3.55;;;13.40;89.00;;;;;;5054369;28;20433;-85
2022/04/12 07:26:27;;;;;;;27.70;5.10;;;14.80;85.30;;;;;;5054776;28;20055;-85
2022/04/12 07:28:54;;;;;;;23.45;3.67;;;15.50;81.70;;;;;;5055883;28;20087;-85
2022/04/12 07:31:21;;;;;;;12.85;3.50;;;16.10;77.20;;;;;;5053670;28;20151;-85
2022/04/12 07:33:48;;;;;;;17.02;3.92;;;16.50;74.10;;;;;;5055574;28;20041;-85
2022/04/12 07:36:14;;;;;;;21.50;3.85;;;16.60;72.70;;;;;;5054768;28;20077;-85
2022/04/12 07:38:42;;;;;;;12.52;3.25;;;16.70;73.40;;;;;;5055252;28;20128;-85
2022/04/12 07:41:09;;;;;;;12.85;3.00;;;16.40;75.20;;;;;;5055357;28;20053;-85
2022/04/12 07:43:37;;;;;;;10.05;2.95;;;16.80;73.70;;;;;;5054148;28;20080;-85
2022/04/12 07:46:04;;;;;;;12.73;3.30;;;17.10;73.60;;;;;;5053370;28;20123;-85
2022/04/12 07:48:46;;;;;;;6.95;2.15;;;17.60;72.80;;;;;;5055058;28;20049;-86
2022/04/12 07:51:13;;;;;;;12.15;2.80;;;18.60;69.90;;;;;;5053959;28;20095;-85
2022/04/12 07:53:40;;;;;;;8.65;2.13;;;18.30;68.70;;;;;;5052884;28;20067;-85
2022/04/12 07:56:07;;;;;;;8.15;2.90;;;19.10;67.90;;;;;;5053786;28;20135;-85
2022/04/12 07:58:34;;;;;;;11.25;2.95;;;20.50;64.30;;;;;;5051372;28;20088;-86
2022/04/12 08:01:01;;;;;;;15.57;3.20;;;20.90;60.50;;;;;;5054032;28;20482;-86
2022/04/12 08:03:28;;;;;;;8.23;2.90;;;21.40;60.90;;;;;;5053802;28;20049;-86
2022/04/12 08:05:54;;;;;;;14.52;2.70;;;20.70;62.20;;;;;;5054713;28;20055;-86
2022/04/12 08:08:21;;;;;;;6.85;2.40;;;20.70;60.80;;;;;;5053858;28;20139;-86
2022/04/12 08:10:48;;;;;;;6.07;2.03;;;22.00;58.20;;;;;;5055327;28;20088;-87
2022/04/12 08:13:15;;;;;;;6.65;2.17;;;22.70;57.80;;;;;;5055287;28;20068;-86
2022/04/12 08:15:42;;;;;;;7.10;2.20;;;22.50;57.60;;;;;;5053054;28;20049;-85
2022/04/12 08:18:09;;;;;;;11.90;2.42;;;22.90;57.20;;;;;;5052299;28;20123;-85
2022/04/12 08:20:36;;;;;;;6.65;1.80;;;22.10;56.80;;;;;;5052891;28;20136;-86
2022/04/12 08:23:03;;;;;;;9.55;2.33;;;22.30;57.00;;;;;;5053902;28;20055;-85
2022/04/12 08:25:29;;;;;;;9.38;2.40;;;24.20;56.50;;;;;;5054637;28;20095;-85
2022/04/12 08:27:56;;;;;;;15.98;2.17;;;24.20;54.50;;;;;;5053114;28;20079;-85
2022/04/12 08:30:23;;;;;;;11.18;2.30;;;25.40;52.30;;;;;;5056481;28;20076;-85
2022/04/12 08:32:50;;;;;;;15.35;2.65;;;25.90;49.00;;;;;;5056360;28;20056;-85
2022/04/12 08:35:17;;;;;;;11.48;2.15;;;25.70;49.10;;;;;;5055312;28;20464;-85
2022/04/12 08:37:44;;;;;;;4.25;1.67;;;26.40;49.20;;;;;;5053117;28;20508;-85
2022/04/12 08:40:11;;;;;;;3.00;1.33;;;25.60;46.90;;;;;;5051840;28;20132;-86
2022/04/12 08:42:39;;;;;;;4.53;1.20;;;26.50;45.30;;;;;;5053436;28;20053;-85
2022/04/12 08:45:07;;;;;;;2.92;1.20;;;26.50;43.60;;;;;;5053251;28;20080;-85
2022/04/12 08:47:36;;;;;;;1.48;1.38;;;26.40;43.60;;;;;;5053253;28;20053;-85
2022/04/12 08:50:05;;;;;;;2.88;1.90;;;27.20;43.90;;;;;;5053172;28;20073;-87
2022/04/12 08:52:32;;;;;;;2.22;1.30;;;27.30;42.60;;;;;;5054158;28;20569;-85
2022/04/12 08:55:01;;;;;;;3.47;1.38;;;27.50;42.80;;;;;;5052534;28;20092;-86
2022/04/12 08:57:29;;;;;;;1.23;1.13;;;28.30;42.60;;;;;;5053542;28;20049;-85
2022/04/12 08:59:56;;;;;;;2.70;1.40;;;28.80;41.20;;;;;;5068210;28;20460;-85
2022/04/12 09:02:23;;;;;;;4.22;1.10;;;29.40;39.90;;;;;;5051871;28;20553;-85
2022/04/12 09:04:50;;;;;;;6.45;1.33;;;29.20;40.40;;;;;;5052971;28;20110;-85
2022/04/12 09:07:24;;;;;;;4.00;0.88;;;28.30;40.80;;;;;;5053567;28;20049;-84
2022/04/12 09:09:52;;;;;;;1.40;1.10;;;27.60;40.60;;;;;;5052561;28;20056;-86
2022/04/12 09:12:19;;;;;;;1.20;1.10;;;28.20;38.90;;;;;;5052892;28;20416;-85
2022/04/12 09:14:52;;;;;;;1.08;0.85;;;27.00;40.10;;;;;;5052541;28;20421;-85
2022/04/12 09:17:44;;;;;;;1.50;1.02;;;27.50;40.20;;;;;;5052926;28;20057;-89
2022/04/12 09:20:19;;;;;;;0.80;0.75;;;28.30;39.40;;;;;;5053604;28;20049;-85
2022/04/12 09:22:46;;;;;;;3.10;1.20;;;27.90;39.60;;;;;;5052709;28;20045;-85
2022/04/12 09:25:15;;;;;;;3.83;0.85;;;28.20;38.70;;;;;;5052401;28;20486;-85
2022/04/12 09:27:49;;;;;;;1.73;0.68;;;28.90;38.70;;;;;;5053231;28;20099;-85
2022/04/12 09:30:16;;;;;;;;;;;29.60;36.90;;;;;;5053976;28;20049;-86
2022/04/12 09:32:47;;;;;;;0.90;0.63;;;29.60;37.90;;;;;;5053189;28;19920;-85
2022/04/12 09:35:15;;;;;;;1.27;0.70;;;29.80;37.00;;;;;;5052332;28;20136;-87
2022/04/12 09:37:44;;;;;;;1.13;0.82;;;28.90;36.80;;;;;;5052196;28;20553;-84
2022/04/12 09:40:16;;;;;;;1.80;0.93;;;27.90;36.30;;;;;;5051464;28;20055;-87
2022/04/12 09:42:50;;;;;;;3.50;0.60;;;;;;;;;;5052688;28;20124;-85
2022/04/12 09:45:18;;;;;;;1.52;1.00;;;;;;;;;;5053235;28;20098;-86
2022/04/12 09:47:50;;;;;;;0.68;0.55;;;26.80;37.40;;;;;;5052429;28;20055;-86
2022/04/12 09:50:38;;;;;;;1.27;0.70;;;26.80;38.60;;;;;;5052371;28;20045;-87
2022/04/12 09:53:10;;;;;;;1.65;0.80;;;26.20;38.20;;;;;;5053480;28;20087;-86
2022/04/12 09:55:42;;;;;;;2.42;0.70;;;25.60;39.00;;;;;;5053357;28;20053;-86
2022/04/12 09:58:15;;;;;;;;;;;25.10;39.40;;;;;;5053794;28;20041;-86
2022/04/12 10:00:45;;;;;;;0.82;0.75;;;24.60;39.70;;;;;;5053216;28;19920;-87
2022/04/12 10:03:14;;;;;;;1.50;0.90;;;24.20;41.50;;;;;;5052413;28;20077;-86
2022/04/12 10:05:43;;;;;;;1.25;0.90;;;24.50;40.60;;;;;;5052966;28;20084;-87
2022/04/12 10:08:11;;;;;;;1.20;1.10;;;24.80;41.40;;;;;;5053523;28;20052;-86
2022/04/12 10:10:43;;;;;;;0.80;0.80;;;24.90;40.90;;;;;;5053191;28;20075;-87
2022/04/12 10:13:12;;;;;;;1.77;0.98;;;25.00;40.30;;;;;;5052131;28;20063;-86
2022/04/12 10:15:40;;;;;;;1.75;0.70;;;25.00;39.20;;;;;;5051997;28;20080;-85
2022/04/12 10:18:07;;;;;;;0.90;0.90;;;25.40;39.00;;;;;;5052171;28;20136;-89
2022/04/12 10:20:34;;;;;;;1.80;0.93;;;25.90;39.20;;;;;;5052145;28;20045;-86
2022/04/12 10:23:01;;;;;;;1.10;1.02;;;25.50;38.80;;;;;;5051946;28;20045;-85
2022/04/12 10:25:28;;;;;;;1.10;1.00;;;25.10;38.60;;;;;;5068554;28;20413;-86
2022/04/12 10:28:03;;;;;;;0.77;0.77;;;25.40;39.80;;;;;;5052909;28;20077;-87
2022/04/12 10:30:31;;;;;;;1.15;1.00;;;25.90;40.60;;;;;;5052019;28;20082;-86
2022/04/12 10:33:05;;;;;;;2.50;0.93;;;26.60;38.60;;;;;;5053240;28;20084;-86
2022/04/12 10:35:44;;;;;;;1.38;1.02;;;26.20;39.60;;;;;;5052087;28;20095;-86
2022/04/12 10:38:19;;;;;;;1.42;0.80;;;26.50;38.10;;;;;;5052082;28;20489;-85
2022/04/12 10:41:10;;;;;;;2.72;1.08;;;26.60;39.80;;;;;;5052632;28;20143;-85
2022/04/12 10:43:39;;;;;;;8.25;2.45;;;28.10;38.00;;;;;;5065387;28;20060;-85
2022/04/12 10:46:11;;;;;;;2.75;1.00;;;28.50;36.90;;;;;;5052718;28;20463;-85
2022/04/12 10:48:38;;;;;;;1.98;0.70;;;28.20;36.60;;;;;;5052874;28;20049;-85
2022/04/12 10:51:06;;;;;;;1.27;0.93;;;28.70;37.00;;;;;;5051927;28;20151;-85
2022/04/12 10:53:37;;;;;;;2.00;1.13;;;29.10;36.10;;;;;;5053601;28;20482;-86
2022/04/12 10:56:08;;;;;;;2.88;1.02;;;29.60;37.00;;;;;;5055609;28;20103;-84
2022/04/12 10:58:35;;;;;;;1.65;0.80;;;29.60;37.90;;;;;;5054778;28;20215;-85
2022/04/12 11:01:04;;;;;;;2.20;1.00;;;29.00;35.90;;;;;;5055091;28;20091;-86
2022/04/12 11:03:45;;;;;;;1.45;0.90;;;27.50;36.30;;;;;;5056277;28;20076;-86
2022/04/12 11:06:13;;;;;;;9.68;3.03;;;28.00;37.30;;;;;;5055082;28;20081;-86
2022/04/12 11:08:43;;;;;;;1.38;1.00;;;28.40;38.20;;;;;;5055266;28;20067;-85
2022/04/12 11:11:10;;;;;;;7.18;1.48;;;30.10;38.60;;;;;;5056409;28;20475;-86
2022/04/12 11:13:37;;;;;;;5.85;1.20;;;30.60;35.50;;;;;;5056175;28;20103;-85
2022/04/12 11:16:10;;;;;;;3.58;1.25;;;30.60;37.00;;;;;;5054964;28;20075;-85
2022/04/12 11:18:57;;;;;;;1.20;0.90;;;30.60;36.00;;;;;;5055085;28;20096;-85
2022/04/12 11:21:26;;;;;;;1.55;0.77;;;28.10;33.60;;;;;;5054680;28;20132;-86
2022/04/12 11:24:04;;;;;;;1.92;1.00;;;26.40;36.10;;;;;;5055979;28;20135;-86
2022/04/12 11:26:46;;;;;;;3.90;2.47;;;25.80;39.30;;;;;;5054886;28;20409;-86
2022/04/12 11:29:26;;;;;;;1.23;1.00;;;27.90;37.50;;;;;;5055966;28;20049;-85
2022/04/12 11:31:54;;;;;;;1.35;1.05;;;29.80;37.30;;;;;;5054794;28;20045;-87
2022/04/12 11:34:23;;;;;;;1.90;0.75;;;32.30;36.10;;;;;;5054504;28;20063;-87
2022/04/12 11:37:01;;;;;;;1.00;0.90;;;32.80;35.00;;;;;;5055519;28;20053;-87
2022/04/12 11:39:30;;;;;;;1.33;0.98;;;32.60;34.70;;;;;;5053910;28;20049;-86
2022/04/12 11:41:59;;;;;;;1.10;1.00;;;31.20;33.50;;;;;;5054861;28;20131;-86
2022/04/12 11:44:27;;;;;;;0.82;0.70;;;31.70;36.40;;;;;;5055561;28;20055;-86
2022/04/12 11:47:02;;;;;;;1.58;1.05;;;31.70;34.20;;;;;;5055541;28;20052;-86
2022/04/12 11:49:30;;;;;;;1.60;0.82;;;30.50;34.50;;;;;;5055940;28;20057;-86
2022/04/12 11:51:59;;;;;;;1.50;1.40;;;30.80;36.60;;;;;;5054587;28;20135;-86
2022/04/12 11:54:40;;;;;;;0.98;0.98;;;29.00;36.90;;;;;;5054658;28;20553;-86
2022/04/12 11:57:21;;;;;;;2.47;0.88;;;29.90;41.00;;;;;;5054471;28;20084;-87
2022/04/12 11:59:51;;;;;;;2.53;1.02;;;29.10;38.90;;;;;;5054470;28;20107;-88
2022/04/12 12:02:39;;;;;;;3.08;1.48;;;29.50;39.70;;;;;;5055445;28;20118;-86
2022/04/12 12:05:11;;;;;;;1.33;0.88;;;28.30;38.10;;;;;;5069603;28;20140;-86
2022/04/12 12:07:39;;;;;;;2.47;0.93;;;30.40;38.70;;;;;;5054856;28;20259;-86
2022/04/12 12:10:12;;;;;;;1.65;0.93;;;30.00;39.50;;;;;;5070443;28;20404;-85
2022/04/12 12:12:39;;;;;;;6.65;1.30;;;29.80;38.50;;;;;;5054155;28;20057;-86
2022/04/12 12:15:23;;;;;;;4.03;1.13;;;29.60;39.60;;;;;;5054045;28;20053;-85
2022/04/12 12:17:54;;;;;;;1.08;0.90;;;29.40;38.80;;;;;;5053938;28;20408;-86
2022/04/12 12:20:23;;;;;;;19.63;3.13;;;29.20;39.00;;;;;;5053871;28;20092;-87
2022/04/12 12:22:51;;;;;;;7.32;1.30;;;29.50;38.20;;;;;;5053703;28;20056;-86
2022/04/12 12:25:18;;;;;;;1.23;0.82;;;29.10;38.80;;;;;;5053757;28;20474;-85
2022/04/12 12:27:50;;;;;;;1.65;1.02;;;28.30;37.30;;;;;;5054060;28;20052;-86
2022/04/12 12:30:20;;;;;;;0.80;0.80;;;28.40;39.10;;;;;;5053764;28;20194;-86
2022/04/12 12:32:51;;;;;;;3.42;0.90;;;28.40;39.70;;;;;;5053646;28;20087;-86
2022/04/12 12:35:18;;;;;;;5.07;0.95;;;28.90;41.30;;;;;;5053535;28;20124;-86
2022/04/12 12:37:46;;;;;;;3.38;1.10;;;28.70;39.00;;;;;;5053644;28;20057;-86
2022/04/12 12:40:32;;;;;;;2.10;1.05;;;27.90;39.70;;;;;;5053638;28;20076;-85
2022/04/12 12:43:02;;;;;;;9.75;1.45;;;27.30;43.20;;;;;;5053501;28;20061;-86
2022/04/12 12:45:29;;;;;;;3.33;1.00;;;26.50;41.40;;;;;;5053093;28;20055;-85
2022/04/12 12:47:57;;;;;;;1.58;0.80;;;25.10;40.80;;;;;;5054260;28;20128;-86
2022/04/12 12:50:26;;;;;;;3.28;1.05;;;24.50;43.00;;;;;;5054150;28;20096;-85
2022/04/12 12:53:01;;;;;;;3.13;0.70;;;24.00;43.10;;;;;;5053226;28;20136;-84
2022/04/12 12:55:51;;;;;;;2.15;1.05;;;23.70;44.20;;;;;;5053182;28;20428;-86
2022/04/12 12:58:19;;;;;;;1.98;0.80;;;23.50;43.70;;;;;;5053051;28;20077;-84